usa flag      new mexico flag

Language: 

LomaPinon History Data from Weather Underground


LomaPinon Weather Station Historical Data
 
Daily Summary for June 25, 2018 Units:  English    Metric   Both
« Previous Day
Next Day »
Daily Weekly Monthly Yearly Custom
  Current: High: Low: Average:
Temperature: 89.9 °F TemperatureF °F 62.5 °F 72.5 °F
Dew Point: 39.2 °F DewpointF °F 11.7 °F 31 °F
Humidity: 17 % Humidity % 10 % 24 %
Wind Speed: 11.0 mph WindSpeedMPH mph 0.0 mph 0.4 mph
Wind Gust: 11.0 mph WindSpeedGustMPH mph - -
Wind:SSW - - WSW
Pressure: 29.65 in PressureIn in 29.55 in -
Precipitation: 0.00 in      
Historical Graphs
 
 
Tabular Data for June 25, 2018
Time Temperature Dew Point Pressure Wind Wind Speed Wind Gust Humidity Rainfall Rate (Hourly) solar
TemperatureF °F DewpointF °F PressureIn in Calm     Humidity % HourlyPrecipIn in SolarRadiationWatts/m^2 W/m2
00:04 74.6 °F 14.4 °F 29.55 in WNW 3.0 mph 6.0 mph 10 % 0.00 in 0.00 W/m2
00:09 74.6 °F 14.4 °F 29.55 in Calm   6.0 mph 10 % 0.00 in 0.00 W/m2
00:14 74.4 °F 14.2 °F 29.55 in Calm   6.0 mph 10 % 0.00 in 0.00 W/m2
00:19 74.3 °F 14.1 °F 29.55 in WNW 1.0 mph 5.0 mph 10 % 0.00 in 0.00 W/m2
00:24 74.0 °F 13.9 °F 29.55 in Calm   2.0 mph 10 % 0.00 in 0.00 W/m2
00:29 73.7 °F 13.7 °F 29.55 in West 1.0 mph 3.0 mph 10 % 0.00 in 0.00 W/m2
00:34 73.5 °F 13.5 °F 29.55 in Calm   3.0 mph 10 % 0.00 in 0.00 W/m2
00:39 73.1 °F 13.2 °F 29.55 in Calm   1.0 mph 10 % 0.00 in 0.00 W/m2
00:44 72.8 °F 13.0 °F 29.55 in Calm   2.0 mph 10 % 0.00 in 0.00 W/m2
00:49 72.5 °F 14.9 °F 29.55 in Calm   2.0 mph 11 % 0.00 in 0.00 W/m2
00:54 72.2 °F 12.5 °F 29.55 in Calm   1.0 mph 10 % 0.00 in 0.00 W/m2
00:59 71.8 °F 14.4 °F 29.55 in West 1.0 mph 2.0 mph 11 % 0.00 in 0.00 W/m2
01:04 71.6 °F 12.1 °F 29.55 in Calm   2.0 mph 10 % 0.00 in 0.00 W/m2
01:09 71.4 °F 11.9 °F 29.55 in Calm   3.0 mph 10 % 0.00 in 0.00 W/m2
01:14 71.3 °F 11.8 °F 29.55 in WNW 1.0 mph 3.0 mph 10 % 0.00 in 0.00 W/m2
01:19 71.2 °F 13.9 °F 29.55 in Calm   2.0 mph 11 % 0.00 in 0.00 W/m2
01:24 71.2 °F 13.9 °F 29.55 in Calm   3.0 mph 11 % 0.00 in 0.00 W/m2
01:29 71.2 °F 13.9 °F 29.55 in Calm   3.0 mph 11 % 0.00 in 0.00 W/m2
01:34 71.2 °F 13.9 °F 29.55 in WNW 1.0 mph 3.0 mph 11 % 0.00 in 0.00 W/m2
01:39 71.2 °F 11.8 °F 29.55 in Calm   3.0 mph 10 % 0.00 in 0.00 W/m2
01:44 71.1 °F 11.7 °F 29.56 in WNW 1.0 mph 3.0 mph 10 % 0.00 in 0.00 W/m2
01:49 71.1 °F 13.9 °F 29.56 in Calm   3.0 mph 11 % 0.00 in 0.00 W/m2
01:54 71.1 °F 11.7 °F 29.56 in Calm   2.0 mph 10 % 0.00 in 0.00 W/m2
01:59 70.9 °F 13.7 °F 29.56 in Calm   2.0 mph 11 % 0.00 in 0.00 W/m2
02:04 70.8 °F 13.6 °F 29.56 in Calm     11 % 0.00 in 0.00 W/m2
02:09 70.6 °F 13.5 °F 29.57 in Calm     11 % 0.00 in 0.00 W/m2
02:14 70.5 °F 13.4 °F 29.57 in Calm   1.0 mph 11 % 0.00 in 0.00 W/m2
02:19 70.4 °F 13.3 °F 29.57 in Calm   1.0 mph 11 % 0.00 in 0.00 W/m2
02:24 70.2 °F 13.2 °F 29.57 in Calm   2.0 mph 11 % 0.00 in 0.00 W/m2
02:29 70.2 °F 13.2 °F 29.57 in Calm   3.0 mph 11 % 0.00 in 0.00 W/m2
02:34 70.1 °F 13.1 °F 29.57 in Calm   3.0 mph 11 % 0.00 in 0.00 W/m2
02:39 70.0 °F 13.0 °F 29.57 in Calm   2.0 mph 11 % 0.00 in 0.00 W/m2
02:44 69.9 °F 12.9 °F 29.57 in Calm   1.0 mph 11 % 0.00 in 0.00 W/m2
02:49 69.7 °F 14.8 °F 29.58 in Calm   1.0 mph 12 % 0.00 in 0.00 W/m2
02:54 69.0 °F 14.2 °F 29.59 in Calm   4.0 mph 12 % 0.00 in 0.00 W/m2
02:59 68.7 °F 14.0 °F 29.59 in Calm   4.0 mph 12 % 0.00 in 0.00 W/m2
03:04 68.4 °F 15.6 °F 29.59 in Calm     13 % 0.00 in 0.00 W/m2
03:09 68.1 °F 15.3 °F 29.58 in Calm   1.0 mph 13 % 0.00 in 0.00 W/m2
03:14 67.7 °F 15.0 °F 29.59 in Calm   1.0 mph 13 % 0.00 in 0.00 W/m2
03:19 67.4 °F 14.8 °F 29.59 in Calm   1.0 mph 13 % 0.00 in 0.00 W/m2
03:24 67.1 °F 16.3 °F 29.59 in Calm   4.0 mph 14 % 0.00 in 0.00 W/m2
03:29 66.9 °F 16.1 °F 29.59 in Calm   4.0 mph 14 % 0.00 in 0.00 W/m2
03:34 66.6 °F 15.9 °F 29.60 in Calm   2.0 mph 14 % 0.00 in 0.00 W/m2
03:39 66.5 °F 15.8 °F 29.61 in Calm   2.0 mph 14 % 0.00 in 0.00 W/m2
03:44 66.4 °F 14.0 °F 29.61 in Calm   1.0 mph 13 % 0.00 in 0.00 W/m2
03:49 66.3 °F 15.6 °F 29.61 in Calm   1.0 mph 14 % 0.00 in 0.00 W/m2
03:54 66.3 °F 15.6 °F 29.61 in Calm   1.0 mph 14 % 0.00 in 0.00 W/m2
03:59 66.2 °F 13.8 °F 29.61 in Calm   1.0 mph 13 % 0.00 in 0.00 W/m2
04:04 66.3 °F 13.9 °F 29.61 in Calm   2.0 mph 13 % 0.00 in 0.00 W/m2
04:09 66.4 °F 15.7 °F 29.62 in Calm   2.0 mph 14 % 0.00 in 0.00 W/m2
04:14 66.3 °F 13.9 °F 29.62 in Calm   1.0 mph 13 % 0.00 in 0.00 W/m2
04:19 66.3 °F 13.9 °F 29.62 in Calm   1.0 mph 13 % 0.00 in 0.00 W/m2
04:24 66.3 °F 13.9 °F 29.62 in Calm   1.0 mph 13 % 0.00 in 0.00 W/m2
04:29 66.2 °F 13.8 °F 29.63 in Calm   1.0 mph 13 % 0.00 in 0.00 W/m2
04:34 66.1 °F 13.8 °F 29.63 in Calm   1.0 mph 13 % 0.00 in 0.00 W/m2
04:39 66.0 °F 13.7 °F 29.63 in Calm   1.0 mph 13 % 0.00 in 0.00 W/m2
04:44 65.8 °F 15.2 °F 29.63 in Calm     14 % 0.00 in 0.00 W/m2
04:49 65.7 °F 15.1 °F 29.64 in Calm     14 % 0.00 in 0.00 W/m2
04:54 65.4 °F 16.5 °F 29.64 in Calm     15 % 0.00 in 0.00 W/m2
04:59 65.2 °F 14.7 °F 29.65 in Calm     14 % 0.00 in 0.00 W/m2
05:04 64.9 °F 14.5 °F 29.65 in Calm     14 % 0.00 in 0.00 W/m2
05:09 64.6 °F 14.3 °F 29.66 in Calm     14 % 0.00 in 0.00 W/m2
05:14 64.3 °F 15.6 °F 29.66 in Calm     15 % 0.00 in 0.00 W/m2
05:19 63.9 °F 15.3 °F 29.67 in Calm     15 % 0.00 in 0.00 W/m2
05:24 63.7 °F 15.1 °F 29.67 in Calm     15 % 0.00 in 0.00 W/m2
05:29 63.4 °F 16.4 °F 29.68 in Calm     16 % 0.00 in 0.00 W/m2
05:34 63.1 °F 16.1 °F 29.68 in Calm     16 % 0.00 in 0.00 W/m2
05:39 62.7 °F 17.2 °F 29.68 in Calm     17 % 0.00 in 0.00 W/m2
05:44 62.5 °F 19.6 °F 29.68 in Calm     19 % 0.00 in 0.00 W/m2
05:49 62.5 °F 24.2 °F 29.68 in WNW 2.0 mph 3.0 mph 23 % 0.00 in 0.00 W/m2
05:54 62.6 °F 29.0 °F 29.68 in Calm   4.0 mph 28 % 0.00 in 5.00 W/m2
05:59 62.8 °F 30.9 °F 29.69 in Calm   4.0 mph 30 % 0.00 in 7.00 W/m2
06:04 63.1 °F 33.5 °F 29.69 in Calm   4.0 mph 33 % 0.00 in 11.00 W/m2
06:09 63.2 °F 34.3 °F 29.69 in Calm   1.0 mph 34 % 0.00 in 14.00 W/m2
06:14 63.2 °F 37.2 °F 29.69 in Calm   1.0 mph 38 % 0.00 in 18.00 W/m2
06:19 63.2 °F 39.1 °F 29.69 in Calm     41 % 0.00 in 21.00 W/m2
06:24 63.2 °F 40.9 °F 29.68 in Calm     44 % 0.00 in 25.00 W/m2
06:29 63.3 °F 42.7 °F 29.68 in Calm   1.0 mph 47 % 0.00 in 26.00 W/m2
06:34 63.4 °F 44.4 °F 29.68 in Calm   2.0 mph 50 % 0.00 in 30.00 W/m2
06:39 63.6 °F 45.6 °F 29.68 in Calm   2.0 mph 52 % 0.00 in 35.00 W/m2
06:44 63.8 °F 46.3 °F 29.68 in Calm   2.0 mph 53 % 0.00 in 118.00 W/m2
06:49 64.0 °F 47.0 °F 29.68 in Calm   3.0 mph 54 % 0.00 in 139.00 W/m2
06:54 64.3 °F 47.3 °F 29.68 in Calm   3.0 mph 54 % 0.00 in 155.00 W/m2
06:59 64.6 °F 47.6 °F 29.68 in WNW 1.0 mph 4.0 mph 54 % 0.00 in 158.00 W/m2
07:04 65.0 °F 47.4 °F 29.69 in Calm   4.0 mph 53 % 0.00 in 179.00 W/m2
07:09 65.4 °F 47.8 °F 29.70 in Calm   5.0 mph 53 % 0.00 in 197.00 W/m2
07:14 65.7 °F 47.6 °F 29.70 in Calm   6.0 mph 52 % 0.00 in 214.00 W/m2
07:19 66.0 °F 47.9 °F 29.70 in Calm   6.0 mph 52 % 0.00 in 230.00 W/m2
07:24 66.4 °F 48.2 °F 29.70 in NW 2.0 mph 5.0 mph 52 % 0.00 in 248.00 W/m2
07:29 66.8 °F 48.1 °F 29.70 in NW 2.0 mph 5.0 mph 51 % 0.00 in 257.00 W/m2
07:34 67.0 °F 47.7 °F 29.70 in NNW 3.0 mph 6.0 mph 50 % 0.00 in 276.00 W/m2
07:39 67.3 °F 48.0 °F 29.70 in WNW 1.0 mph 6.0 mph 50 % 0.00 in 294.00 W/m2
07:44 67.6 °F 47.8 °F 29.70 in NNE 1.0 mph 7.0 mph 49 % 0.00 in 311.00 W/m2
07:49 67.9 °F 47.5 °F 29.71 in Calm   7.0 mph 48 % 0.00 in 329.00 W/m2
07:54 68.3 °F 47.8 °F 29.70 in Calm   6.0 mph 48 % 0.00 in 348.00 W/m2
07:59 68.6 °F 47.6 °F 29.71 in NNW 2.0 mph 5.0 mph 47 % 0.00 in 366.00 W/m2
08:04 69.0 °F 46.8 °F 29.71 in NNW 1.0 mph 4.0 mph 45 % 0.00 in 381.00 W/m2
08:09 69.4 °F 47.1 °F 29.71 in NNW 4.0 mph 4.0 mph 45 % 0.00 in 397.00 W/m2
08:14 69.8 °F 46.9 °F 29.71 in Calm   4.0 mph 44 % 0.00 in 415.00 W/m2
08:19 70.1 °F 46.6 °F 29.71 in Calm   4.0 mph 43 % 0.00 in 436.00 W/m2
08:24 70.4 °F 46.2 °F 29.71 in Calm   7.0 mph 42 % 0.00 in 452.00 W/m2
08:29 70.8 °F 46.6 °F 29.71 in Calm   7.0 mph 42 % 0.00 in 469.00 W/m2
08:34 71.3 °F 46.4 °F 29.71 in Calm   6.0 mph 41 % 0.00 in 483.00 W/m2
08:39 71.7 °F 46.7 °F 29.71 in Calm   6.0 mph 41 % 0.00 in 499.00 W/m2
08:44 72.2 °F 46.5 °F 29.71 in Calm   6.0 mph 40 % 0.00 in 517.00 W/m2
08:49 72.5 °F 45.4 °F 29.71 in Calm   6.0 mph 38 % 0.00 in 534.00 W/m2
08:54 72.9 °F 45.8 °F 29.71 in Calm   6.0 mph 38 % 0.00 in 550.00 W/m2
08:59 73.4 °F 46.2 °F 29.71 in NNW 6.0 mph 7.0 mph 38 % 0.00 in 566.00 W/m2
09:04 73.9 °F 46.0 °F 29.71 in Calm   7.0 mph 37 % 0.00 in 584.00 W/m2
09:09 74.4 °F 45.7 °F 29.71 in Calm   7.0 mph 36 % 0.00 in 598.00 W/m2
09:14 74.8 °F 45.3 °F 29.70 in North 2.0 mph 5.0 mph 35 % 0.00 in 612.00 W/m2
09:19 75.3 °F 45.0 °F 29.71 in Calm   5.0 mph 34 % 0.00 in 629.00 W/m2
09:24 75.8 °F 45.4 °F 29.70 in Calm   5.0 mph 34 % 0.00 in 643.00 W/m2
09:29 76.4 °F 45.2 °F 29.71 in Calm   7.0 mph 33 % 0.00 in 659.00 W/m2
09:34 76.7 °F 46.2 °F 29.70 in Calm   7.0 mph 34 % 0.00 in 677.00 W/m2
09:39 77.1 °F 45.8 °F 29.70 in Calm   5.0 mph 33 % 0.00 in 693.00 W/m2
09:44 77.5 °F 44.5 °F 29.70 in Calm   4.0 mph 31 % 0.00 in 703.00 W/m2
09:49 78.2 °F 45.1 °F 29.70 in Calm   5.0 mph 31 % 0.00 in 719.00 W/m2
09:54 78.6 °F 45.4 °F 29.70 in Calm   5.0 mph 31 % 0.00 in 733.00 W/m2
09:59 79.1 °F 45.0 °F 29.70 in Calm   5.0 mph 30 % 0.00 in 747.00 W/m2
10:04 79.7 °F 45.5 °F 29.70 in Calm   3.0 mph 30 % 0.00 in 761.00 W/m2
10:09 80.0 °F 44.0 °F 29.70 in Calm   3.0 mph 28 % 0.00 in 772.00 W/m2
10:14 80.3 °F 46.9 °F 29.70 in Calm   2.0 mph 31 % 0.00 in 784.00 W/m2
10:19 80.9 °F 44.7 °F 29.70 in NW 1.0 mph 3.0 mph 28 % 0.00 in 796.00 W/m2
10:24 80.8 °F 43.7 °F 29.70 in Calm   6.0 mph 27 % 0.00 in 807.00 W/m2
10:29 81.0 °F 44.8 °F 29.70 in Calm   6.0 mph 28 % 0.00 in 817.00 W/m2
10:34 81.5 °F 43.3 °F 29.70 in SW 2.0 mph 6.0 mph 26 % 0.00 in 830.00 W/m2
10:39 81.7 °F 43.5 °F 29.70 in South 1.0 mph 6.0 mph 26 % 0.00 in 838.00 W/m2
10:44 81.8 °F 43.6 °F 29.70 in Calm   5.0 mph 26 % 0.00 in 849.00 W/m2
10:49 82.2 °F 43.9 °F 29.70 in Calm   1.0 mph 26 % 0.00 in 858.00 W/m2
10:54 82.7 °F 45.3 °F 29.70 in Calm   3.0 mph 27 % 0.00 in 867.00 W/m2
10:59 83.2 °F 45.7 °F 29.70 in Calm   3.0 mph 27 % 0.00 in 877.00 W/m2
11:04 83.6 °F 46.1 °F 29.70 in Calm   3.0 mph 27 % 0.00 in 889.00 W/m2
11:09 84.0 °F 43.3 °F 29.70 in Calm   3.0 mph 24 % 0.00 in 898.00 W/m2
11:14 84.2 °F 43.5 °F 29.70 in SW 2.0 mph 5.0 mph 24 % 0.00 in 905.00 W/m2
11:19 84.4 °F 43.7 °F 29.70 in Calm   6.0 mph 24 % 0.00 in 916.00 W/m2
11:24 84.6 °F 42.7 °F 29.70 in Calm   6.0 mph 23 % 0.00 in 923.00 W/m2
11:29 84.8 °F 45.1 °F 29.69 in Calm   2.0 mph 25 % 0.00 in 930.00 W/m2
11:34 85.4 °F 44.5 °F 29.69 in Calm   2.0 mph 24 % 0.00 in 937.00 W/m2
11:39 85.9 °F 43.8 °F 29.69 in Calm   1.0 mph 23 % 0.00 in 946.00 W/m2
11:44 86.3 °F 43.0 °F 29.69 in Calm   5.0 mph 22 % 0.00 in 949.00 W/m2
11:49 86.2 °F 42.9 °F 29.68 in South 1.0 mph 5.0 mph 22 % 0.00 in 956.00 W/m2
11:54 86.3 °F 43.0 °F 29.68 in Calm   3.0 mph 22 % 0.00 in 965.00 W/m2
11:59 86.6 °F 43.2 °F 29.68 in South 3.0 mph 9.0 mph 22 % 0.00 in 969.00 W/m2
12:04 86.6 °F 43.2 °F 29.68 in Calm   9.0 mph 22 % 0.00 in 976.00 W/m2
12:09 87.1 °F 43.6 °F 29.68 in Calm   4.0 mph 22 % 0.00 in 974.00 W/m2
12:14 87.6 °F 44.1 °F 29.68 in East 2.0 mph 7.0 mph 22 % 0.00 in 979.00 W/m2
12:19 87.4 °F 42.7 °F 29.67 in East 1.0 mph 10.0 mph 21 % 0.00 in 988.00 W/m2
12:24 87.2 °F 42.5 °F 29.67 in Calm   10.0 mph 21 % 0.00 in 993.00 W/m2
12:29 87.3 °F 42.6 °F 29.67 in Calm   6.0 mph 21 % 0.00 in 993.00 W/m2
12:34 86.9 °F 43.5 °F 29.67 in Calm   8.0 mph 22 % 0.00 in 995.00 W/m2
12:39 87.1 °F 42.4 °F 29.67 in Calm   8.0 mph 21 % 0.00 in 997.00 W/m2
12:44 87.5 °F 42.8 °F 29.67 in Calm   4.0 mph 21 % 0.00 in 998.00 W/m2
12:49 88.1 °F 42.0 °F 29.66 in Calm   3.0 mph 20 % 0.00 in 998.00 W/m2
12:54 88.9 °F 42.6 °F 29.66 in ESE 1.0 mph 2.0 mph 20 % 0.00 in 998.00 W/m2
12:59 89.1 °F 41.5 °F 29.66 in South 2.0 mph 8.0 mph 19 % 0.00 in 1000.00 W/m2
13:04 89.1 °F 41.5 °F 29.66 in SSE 1.0 mph 8.0 mph 19 % 0.00 in 1004.00 W/m2
13:09 89.6 °F 40.5 °F 29.65 in SSW 4.0 mph 6.0 mph 18 % 0.00 in 1002.00 W/m2
13:14 89.7 °F 40.6 °F 29.65 in Calm   6.0 mph 18 % 0.00 in 998.00 W/m2
13:19 89.9 °F 39.2 °F 29.65 in SSW 11.0 mph 11.0 mph 17 % 0.00 in 998.00 W/m2
Rio Rancho, New Mexico Weather
Compliments of Weather Underground - 2 mb
top